Time;durP1;ratioP1;P1;durP2;ratioP2;P2;SDS_P1;SDS_P2;PMS_P1;PMS_P2;Temp;Humidity;BMP_temperature;BMP_pressure;BME280_temperature;BME280_humidity;BME280_pressure;Samples;Min_cycle;Max_cycle;Signal;HPM_P1;HPM_P2
2022/03/22 00:00:29;;;;;;;1.95;1.40;;;;;;;;;;4214124;28;20055;-37
2022/03/22 00:02:30;;;;;;;1.70;1.38;;;;;;;;;;4213506;28;20044;-38
2022/03/22 00:04:57;;;;;;;1.55;1.25;;;;;;;;;;4213604;28;20060;-38
2022/03/22 00:06:58;;;;;;;1.80;1.45;;;;;;;;;;4214019;28;20415;-38
2022/03/22 00:08:59;;;;;;;1.75;1.33;;;;;;;;;;4214077;28;20100;-38
2022/03/22 00:11:00;;;;;;;1.45;1.30;;;;;;;;;;4213830;28;20118;-38
2022/03/22 00:13:02;;;;;;;1.95;1.50;;;;;;;;;;4213961;28;20086;-38
2022/03/22 00:15:03;;;;;;;1.83;1.50;;;;;;;;;;4214146;28;20048;-38
2022/03/22 00:17:04;;;;;;;1.90;1.40;;;;;;;;;;4213366;28;20674;-38
2022/03/22 00:19:05;;;;;;;2.00;1.40;;;;;;;;;;4213947;28;20102;-39
2022/03/22 00:21:06;;;;;;;1.85;1.50;;;;;;;;;;4213813;28;20155;-38
2022/03/22 00:23:07;;;;;;;1.98;1.52;;;;;;;;;;4213673;28;20056;-39
2022/03/22 00:25:09;;;;;;;1.73;1.48;;;;;;;;;;4213709;28;20094;-39
2022/03/22 00:27:09;;;;;;;1.80;1.30;;;;;;;;;;4213808;28;20078;-38
2022/03/22 00:29:10;;;;;;;1.55;1.35;;;;;;;;;;4213552;28;20108;-39
2022/03/22 00:31:11;;;;;;;1.80;1.63;;;;;;;;;;4213722;28;20052;-38
2022/03/22 00:33:12;;;;;;;1.48;1.17;;;;;;;;;;4213354;28;20283;-38
2022/03/22 00:35:18;;;;;;;1.50;1.40;;;;;;;;;;4213936;28;20578;-37
2022/03/22 00:37:19;;;;;;;1.45;1.35;;;;;;;;;;4213968;28;20094;-39
2022/03/22 00:39:20;;;;;;;2.00;1.30;;;;;;;;;;4213732;28;20071;-38
2022/03/22 00:41:20;;;;;;;1.85;1.50;;;;;;;;;;4213759;28;20039;-37
2022/03/22 00:43:22;;;;;;;1.33;1.20;;;;;;;;;;4213453;28;20518;-38
2022/03/22 00:45:27;;;;;;;1.83;1.40;;;;;;;;;;4213319;28;20052;-37
2022/03/22 00:47:28;;;;;;;1.52;1.10;;;;;;;;;;4213117;28;20048;-38
2022/03/22 00:49:30;;;;;;;2.42;1.38;;;;;;;;;;4213433;28;20051;-38
2022/03/22 00:51:31;;;;;;;1.80;1.38;;;;;;;;;;4213572;28;20048;-38
2022/03/22 00:53:41;;;;;;;1.77;1.50;;;;;;;;;;4213269;28;20040;-39
2022/03/22 00:55:43;;;;;;;2.50;1.50;;;;;;;;;;4213177;28;20112;-38
2022/03/22 00:57:44;;;;;;;2.58;1.70;;;;;;;;;;4212931;28;20483;-37
2022/03/22 01:00:06;;;;;;;2.35;1.40;;;;;;;;;;4213284;28;20087;-37
2022/03/22 01:02:08;;;;;;;1.92;1.52;;;;;;;;;;4212830;28;20060;-37
2022/03/22 01:04:24;;;;;;;1.55;1.17;;;;;;;;;;4213146;28;20097;-37
2022/03/22 01:06:24;;;;;;;1.77;1.50;;;;;;;;;;4213114;28;20048;-37
2022/03/22 01:08:26;;;;;;;2.20;1.60;;;;;;;;;;4213008;28;20063;-38
2022/03/22 01:10:29;;;;;;;1.90;1.58;;;;;;;;;;4212959;28;20059;-37
2022/03/22 01:12:30;;;;;;;1.95;1.40;;;;;;;;;;4212903;28;20498;-37
2022/03/22 01:14:43;;;;;;;1.83;1.45;;;;;;;;;;4212259;28;20686;-39
2022/03/22 01:16:44;;;;;;;1.88;1.50;;;;;;;;;;4212807;28;20044;-38
2022/03/22 01:18:45;;;;;;;2.47;1.50;;;;;;;;;;4212814;28;20447;-38
2022/03/22 01:20:47;;;;;;;1.38;1.27;;;;;;;;;;4212899;28;20066;-38
2022/03/22 01:22:49;;;;;;;2.20;1.50;;;;;;;;;;4194791;28;20056;-38
2022/03/22 01:25:10;;;;;;;1.60;1.10;;;;;;;;;;4213051;28;20104;-38
2022/03/22 01:27:12;;;;;;;1.15;1.02;;;;;;;;;;4212930;28;20085;-38
2022/03/22 01:29:13;;;;;;;2.13;1.30;;;;;;;;;;4212818;28;20052;-37
2022/03/22 01:31:14;;;;;;;2.35;1.50;;;;;;;;;;4212868;28;20093;-38
2022/03/22 01:33:15;;;;;;;1.42;1.33;;;;;;;;;;4212597;28;20048;-38
2022/03/22 01:35:29;;;;;;;1.63;1.35;;;;;;;;;;4212890;28;20131;-38
2022/03/22 01:37:30;;;;;;;1.65;1.30;;;;;;;;;;4212588;28;20044;-38
2022/03/22 01:39:31;;;;;;;1.80;1.52;;;;;;;;;;4212624;28;20048;-38
2022/03/22 01:41:32;;;;;;;1.88;1.30;;;;;;;;;;4212687;28;20047;-38
2022/03/22 01:43:33;;;;;;;2.53;1.60;;;;;;;;;;4212676;28;20101;-37
2022/03/22 01:45:48;;;;;;;3.17;1.63;;;;;;;;;;4213062;28;20051;-37
2022/03/22 01:47:49;;;;;;;1.30;1.20;;;;;;;;;;4213221;28;20093;-38
2022/03/22 01:49:51;;;;;;;1.67;1.23;;;;;;;;;;4216309;28;20048;-38
2022/03/22 01:51:52;;;;;;;2.63;1.80;;;;;;;;;;4216108;28;20495;-38
2022/03/22 01:53:53;;;;;;;1.38;1.27;;;;;;;;;;4214852;28;20092;-38
2022/03/22 01:55:54;;;;;;;1.40;1.30;;;;;;;;;;4216317;28;20055;-38
2022/03/22 01:57:55;;;;;;;1.63;1.27;;;;;;;;;;4216437;28;20497;-39
2022/03/22 01:59:56;;;;;;;1.70;1.30;;;;;;;;;;4216155;28;20078;-38
2022/03/22 02:06:56;;;;;;;1.60;1.50;;;;;;;;;;4202866;28;20132;-39
2022/03/22 02:08:57;;;;;;;3.05;1.77;;;;;;;;;;4206458;28;20045;-38
2022/03/22 02:10:59;;;;;;;1.73;1.55;;;;;;;;;;4214869;28;20059;-38
2022/03/22 02:13:01;;;;;;;1.75;1.50;;;;;;;;;;4215744;28;20052;-39
2022/03/22 02:15:03;;;;;;;1.58;1.40;;;;;;;;;;4214431;28;20044;-38
2022/03/22 02:17:18;;;;;;;1.70;1.48;;;;;;;;;;4201328;28;20101;-37
2022/03/22 02:19:19;;;;;;;1.30;1.20;;;;;;;;;;4215799;28;20479;-36
2022/03/22 02:21:20;;;;;;;1.55;1.00;;;;;;;;;;4215685;28;20047;-37
2022/03/22 02:23:25;;;;;;;1.30;1.20;;;;;;;;;;4215765;28;20055;-37
2022/03/22 02:25:25;;;;;;;2.03;1.60;;;;;;;;;;4215567;28;20044;-38
2022/03/22 02:27:34;;;;;;;1.90;1.60;;;;;;;;;;4214845;28;20043;-37
2022/03/22 02:29:35;;;;;;;1.85;1.55;;;;;;;;;;4215821;28;20074;-38
2022/03/22 02:31:36;;;;;;;1.92;1.40;;;;;;;;;;4215956;28;20051;-38
2022/03/22 02:33:41;;;;;;;1.88;1.30;;;;;;;;;;4214954;28;20077;-39
2022/03/22 02:35:42;;;;;;;1.92;1.50;;;;;;;;;;4215385;28;20488;-39
2022/03/22 02:37:43;;;;;;;1.55;1.20;;;;;;;;;;4209229;28;20056;-39
2022/03/22 02:39:44;;;;;;;2.13;1.38;;;;;;;;;;4210349;28;20052;-38
2022/03/22 02:41:48;;;;;;;2.05;1.65;;;;;;;;;;4213744;28;20048;-38
2022/03/22 02:43:50;;;;;;;1.48;1.35;;;;;;;;;;4215028;28;20048;-38
2022/03/22 02:45:51;;;;;;;1.50;1.27;;;;;;;;;;4212561;28;20491;-39
2022/03/22 02:47:52;;;;;;;1.40;1.30;;;;;;;;;;4202935;28;20091;-39
2022/03/22 02:49:55;;;;;;;2.20;1.65;;;;;;;;;;4215374;28;20089;-38
2022/03/22 02:51:56;;;;;;;3.10;1.30;;;;;;;;;;4215057;28;20059;-39
2022/03/22 02:53:57;;;;;;;1.80;1.48;;;;;;;;;;4215350;28;20048;-38
2022/03/22 02:55:57;;;;;;;1.90;1.50;;;;;;;;;;4215403;28;20518;-38
2022/03/22 02:57:58;;;;;;;1.77;1.52;;;;;;;;;;4215254;28;20174;-37
2022/03/22 02:59:59;;;;;;;1.95;1.48;;;;;;;;;;4214107;28;20181;-38
2022/03/22 03:02:01;;;;;;;1.40;1.27;;;;;;;;;;4214616;28;20057;-37
2022/03/22 03:04:01;;;;;;;2.08;1.40;;;;;;;;;;4215036;28;20166;-37
2022/03/22 03:06:02;;;;;;;2.08;1.55;;;;;;;;;;4213751;28;20078;-38
2022/03/22 03:08:04;;;;;;;2.33;1.80;;;;;;;;;;4214796;28;20097;-38
2022/03/22 03:10:17;;;;;;;1.92;1.52;;;;;;;;;;4214860;28;20509;-37
2022/03/22 03:12:18;;;;;;;1.75;1.38;;;;;;;;;;4214875;28;20056;-38
2022/03/22 03:16:41;;;;;;;1.55;1.40;;;;;;;;;;4214904;28;20192;-37
2022/03/22 03:18:43;;;;;;;1.92;1.50;;;;;;;;;;4214734;28;20059;-37
2022/03/22 03:20:47;;;;;;;2.05;1.50;;;;;;;;;;4214993;28;20048;-38
2022/03/22 03:22:47;;;;;;;1.52;1.42;;;;;;;;;;4214838;28;20140;-37
2022/03/22 03:24:48;;;;;;;2.10;1.80;;;;;;;;;;4214870;28;20101;-37
2022/03/22 03:26:49;;;;;;;1.77;1.55;;;;;;;;;;4213470;28;20135;-37
2022/03/22 03:28:50;;;;;;;1.95;1.27;;;;;;;;;;4214600;28;20556;-37
2022/03/22 03:31:10;;;;;;;2.00;1.52;;;;;;;;;;4214795;28;20044;-37
2022/03/22 03:33:11;;;;;;;1.70;1.60;;;;;;;;;;4214118;28;20131;-37
2022/03/22 03:35:12;;;;;;;2.00;1.63;;;;;;;;;;4214544;28;20043;-37
2022/03/22 03:37:13;;;;;;;1.50;1.33;;;;;;;;;;4214587;28;20092;-37
2022/03/22 03:39:14;;;;;;;2.03;1.40;;;;;;;;;;4214743;28;20048;-37
2022/03/22 03:43:45;;;;;;;1.33;1.20;;;;;;;;;;4214518;28;20044;-37
2022/03/22 03:48:05;;;;;;;2.63;1.50;;;;;;;;;;4212966;28;20059;-37
2022/03/22 03:50:07;;;;;;;1.30;1.20;;;;;;;;;;4214353;28;20056;-37
2022/03/22 03:52:23;;;;;;;1.42;1.27;;;;;;;;;;4214468;28;20081;-37
2022/03/22 03:54:24;;;;;;;1.33;1.23;;;;;;;;;;4213107;28;20051;-37
2022/03/22 03:56:25;;;;;;;2.13;1.73;;;;;;;;;;4213046;28;20343;-37
2022/03/22 03:58:26;;;;;;;1.80;1.33;;;;;;;;;;4214059;28;20048;-37
2022/03/22 04:00:27;;;;;;;2.42;1.60;;;;;;;;;;4214234;28;20058;-37
2022/03/22 04:02:47;;;;;;;2.42;1.70;;;;;;;;;;4213731;28;20076;-37
2022/03/22 04:04:55;;;;;;;1.55;1.38;;;;;;;;;;4214378;28;20055;-38
2022/03/22 04:06:56;;;;;;;1.90;1.30;;;;;;;;;;4213792;28;20536;-38
2022/03/22 04:08:57;;;;;;;1.60;1.30;;;;;;;;;;4214116;28;20102;-38
2022/03/22 04:10:58;;;;;;;2.40;1.52;;;;;;;;;;4213360;28;20111;-37
2022/03/22 04:12:59;;;;;;;1.65;1.35;;;;;;;;;;4213884;28;20368;-37
2022/03/22 04:14:59;;;;;;;1.83;1.17;;;;;;;;;;4213889;28;20446;-37
2022/03/22 04:17:00;;;;;;;1.63;1.30;;;;;;;;;;4213458;28;20047;-37
2022/03/22 04:19:01;;;;;;;1.95;1.65;;;;;;;;;;4212567;28;20566;-37
2022/03/22 04:21:02;;;;;;;1.50;1.40;;;;;;;;;;4213894;28;20492;-37
2022/03/22 04:23:03;;;;;;;2.90;1.70;;;;;;;;;;4213547;28;20069;-38
2022/03/22 04:25:04;;;;;;;1.67;1.30;;;;;;;;;;4213807;28;20054;-38
2022/03/22 04:34:05;;;;;;;1.90;1.30;;;;;;;;;;4214064;28;20065;-37
2022/03/22 04:36:07;;;;;;;2.17;1.52;;;;;;;;;;4213553;28;20060;-38
2022/03/22 04:38:08;;;;;;;1.48;1.38;;;;;;;;;;4213376;28;20056;-38
2022/03/22 04:40:10;;;;;;;1.73;1.58;;;;;;;;;;4213515;28;20562;-37
2022/03/22 04:42:13;;;;;;;2.45;1.70;;;;;;;;;;4211779;28;20434;-37
2022/03/22 04:44:15;;;;;;;1.90;1.60;;;;;;;;;;4212349;28;20051;-37
2022/03/22 04:46:18;;;;;;;1.90;1.38;;;;;;;;;;4213613;28;20048;-37
2022/03/22 04:48:19;;;;;;;1.50;1.40;;;;;;;;;;4213078;28;20048;-38
2022/03/22 04:50:20;;;;;;;2.63;1.80;;;;;;;;;;4213319;28;20051;-39
2022/03/22 04:57:00;;;;;;;2.10;1.70;;;;;;;;;;4213127;28;20052;-38
2022/03/22 04:59:01;;;;;;;2.97;1.30;;;;;;;;;;4213321;28;20056;-38
2022/03/22 05:01:03;;;;;;;1.58;1.42;;;;;;;;;;4213221;28;20093;-39
2022/03/22 05:03:05;;;;;;;1.48;1.38;;;;;;;;;;4210993;28;20093;-38
2022/03/22 05:05:07;;;;;;;2.00;1.30;;;;;;;;;;4211001;28;20113;-38
2022/03/22 05:07:08;;;;;;;2.00;1.40;;;;;;;;;;4213075;28;20060;-38
2022/03/22 05:09:10;;;;;;;1.48;1.33;;;;;;;;;;4213057;28;20074;-39
2022/03/22 05:11:11;;;;;;;1.85;1.40;;;;;;;;;;4212851;28;20452;-38
2022/03/22 05:13:12;;;;;;;1.50;1.40;;;;;;;;;;4211818;28;20154;-39
2022/03/22 05:15:13;;;;;;;1.55;1.33;;;;;;;;;;4213375;28;20285;-38
2022/03/22 05:17:15;;;;;;;1.42;1.33;;;;;;;;;;4212610;28;20545;-38
2022/03/22 05:19:16;;;;;;;1.80;1.55;;;;;;;;;;4212857;28;20487;-38
2022/03/22 05:21:17;;;;;;;1.75;1.30;;;;;;;;;;4213086;28;20094;-38
2022/03/22 05:23:18;;;;;;;2.38;1.50;;;;;;;;;;4195694;28;20048;-39
2022/03/22 05:25:19;;;;;;;1.48;1.30;;;;;;;;;;4196350;28;20500;-38
2022/03/22 05:27:20;;;;;;;1.77;1.60;;;;;;;;;;4194823;28;20049;-38
2022/03/22 05:29:21;;;;;;;1.85;1.35;;;;;;;;;;4207095;28;20502;-38
2022/03/22 05:31:22;;;;;;;2.40;1.50;;;;;;;;;;4212702;28;20051;-38
2022/03/22 05:33:25;;;;;;;1.73;1.38;;;;;;;;;;4212510;28;20055;-39
2022/03/22 05:35:27;;;;;;;1.40;1.30;;;;;;;;;;4212737;28;20052;-37
2022/03/22 05:37:27;;;;;;;1.60;1.33;;;;;;;;;;4212678;28;20051;-38
2022/03/22 05:39:30;;;;;;;1.80;1.38;;;;;;;;;;4212677;28;20052;-38
2022/03/22 05:41:31;;;;;;;1.70;1.60;;;;;;;;;;4212721;28;20055;-38
2022/03/22 05:43:32;;;;;;;1.52;1.15;;;;;;;;;;4211404;28;20071;-38
2022/03/22 05:45:33;;;;;;;1.40;1.30;;;;;;;;;;4212953;28;20059;-38
2022/03/22 05:47:34;;;;;;;2.20;1.63;;;;;;;;;;4212113;28;20499;-37
2022/03/22 05:49:36;;;;;;;1.50;1.40;;;;;;;;;;4212726;28;20055;-39
2022/03/22 05:51:37;;;;;;;2.45;1.52;;;;;;;;;;4211552;28;20093;-38
2022/03/22 05:53:37;;;;;;;1.70;1.30;;;;;;;;;;4212869;28;20365;-38
2022/03/22 05:55:38;;;;;;;1.52;1.40;;;;;;;;;;4212994;28;20087;-38
2022/03/22 05:57:39;;;;;;;1.98;1.45;;;;;;;;;;4212531;28;20098;-38
2022/03/22 05:59:40;;;;;;;1.73;1.45;;;;;;;;;;4212523;28;20321;-38
2022/03/22 06:01:44;;;;;;;1.60;1.40;;;;;;;;;;4208431;28;20051;-38
2022/03/22 06:03:45;;;;;;;1.20;1.08;;;;;;;;;;4210661;28;20040;-37
2022/03/22 06:05:46;;;;;;;1.98;1.77;;;;;;;;;;4210550;28;20099;-38
2022/03/22 06:07:47;;;;;;;2.63;1.50;;;;;;;;;;4210634;28;20507;-39
2022/03/22 06:09:48;;;;;;;2.15;1.90;;;;;;;;;;4210366;28;20056;-38
2022/03/22 06:11:48;;;;;;;2.55;1.80;;;;;;;;;;4210285;28;20144;-37
2022/03/22 06:13:49;;;;;;;2.13;1.98;;;;;;;;;;4208869;28;20090;-38
2022/03/22 06:15:52;;;;;;;2.35;1.95;;;;;;;;;;4210231;28;20085;-40
2022/03/22 06:18:19;;;;;;;2.10;1.90;;;;;;;;;;4209898;28;20052;-37
2022/03/22 06:20:20;;;;;;;4.22;2.38;;;;;;;;;;4207897;28;20056;-38
2022/03/22 06:22:21;;;;;;;2.80;1.95;;;;;;;;;;4210238;28;20056;-37
2022/03/22 06:24:22;;;;;;;3.38;2.30;;;;;;;;;;4210060;28;20090;-38
2022/03/22 06:26:23;;;;;;;2.95;2.10;;;;;;;;;;4210227;28;20089;-36
2022/03/22 06:28:24;;;;;;;2.58;2.25;;;;;;;;;;4210166;28;20512;-36
2022/03/22 06:30:25;;;;;;;3.33;2.33;;;;;;;;;;4210327;28;20098;-37
2022/03/22 06:32:26;;;;;;;3.65;2.00;;;;;;;;;;4209901;28;20732;-37
2022/03/22 06:34:29;;;;;;;3.45;2.55;;;;;;;;;;4212098;28;20043;-36
2022/03/22 06:36:30;;;;;;;2.70;2.50;;;;;;;;;;4212961;28;20055;-37
2022/03/22 06:38:32;;;;;;;3.97;2.90;;;;;;;;;;4213301;28;20088;-37
2022/03/22 06:40:38;;;;;;;2.65;2.15;;;;;;;;;;4213531;28;20483;-36
2022/03/22 06:42:40;;;;;;;2.50;2.30;;;;;;;;;;4213545;28;20416;-37
2022/03/22 06:44:41;;;;;;;3.05;2.58;;;;;;;;;;4213144;28;20044;-37
2022/03/22 06:46:42;;;;;;;3.50;2.72;;;;;;;;;;4213082;28;20098;-37
2022/03/22 06:48:43;;;;;;;3.53;2.95;;;;;;;;;;4212817;28;20112;-36
2022/03/22 06:50:47;;;;;;;4.72;2.92;;;;;;;;;;4210228;28;20048;-37
2022/03/22 06:52:48;;;;;;;5.05;3.17;;;;;;;;;;4199343;28;20055;-37
2022/03/22 06:54:49;;;;;;;3.38;2.67;;;;;;;;;;4197738;28;20047;-36
2022/03/22 06:56:49;;;;;;;3.50;2.80;;;;;;;;;;4206015;28;20140;-36
2022/03/22 06:58:50;;;;;;;3.05;2.65;;;;;;;;;;4206922;28;20460;-36
2022/03/22 07:00:55;;;;;;;3.45;2.38;;;;;;;;;;4205440;28;20422;-37
2022/03/22 07:02:56;;;;;;;3.50;2.67;;;;;;;;;;4208014;28;20102;-37
2022/03/22 07:04:56;;;;;;;3.10;2.80;;;;;;;;;;4202630;28;20175;-37
2022/03/22 07:06:58;;;;;;;3.47;2.58;;;;;;;;;;4208885;28;20127;-37
2022/03/22 07:08:59;;;;;;;3.47;2.75;;;;;;;;;;4208946;28;20048;-37
2022/03/22 07:13:19;;;;;;;3.00;2.67;;;;;;;;;;4203383;28;20052;-37
2022/03/22 07:15:23;;;;;;;4.80;3.40;;;;;;;;;;4203616;28;20097;-38
2022/03/22 07:17:24;;;;;;;4.47;2.88;;;;;;;;;;4204945;28;20501;-37
2022/03/22 07:19:25;;;;;;;3.28;2.97;;;;;;;;;;4204936;28;20052;-36
2022/03/22 07:21:26;;;;;;;4.10;2.22;;;;;;;;;;4205176;28;20180;-36
2022/03/22 07:23:26;;;;;;;3.58;3.13;;;;;;;;;;4207735;28;20143;-36
2022/03/22 07:25:28;;;;;;;3.90;3.13;;;;;;;;;;4207537;28;20517;-36
2022/03/22 07:27:30;;;;;;;3.55;2.92;;;;;;;;;;4202760;28;20048;-36
2022/03/22 07:29:31;;;;;;;3.97;2.70;;;;;;;;;;4196859;28;20051;-37
2022/03/22 07:31:37;;;;;;;3.40;3.10;;;;;;;;;;4199114;28;20415;-39
2022/03/22 07:33:38;;;;;;;3.50;3.20;;;;;;;;;;4200120;28;20048;-36
2022/03/22 07:35:40;;;;;;;4.68;3.35;;;;;;;;;;4198016;28;20498;-38
2022/03/22 07:37:42;;;;;;;6.05;2.88;;;;;;;;;;4201289;28;20052;-38
2022/03/22 07:39:43;;;;;;;3.97;3.13;;;;;;;;;;4201683;28;20059;-38
2022/03/22 07:41:44;;;;;;;4.35;3.05;;;;;;;;;;4194575;28;20415;-36
2022/03/22 07:43:46;;;;;;;4.47;3.00;;;;;;;;;;4198633;28;20062;-36
2022/03/22 07:45:47;;;;;;;4.07;3.20;;;;;;;;;;4199141;28;20048;-36
2022/03/22 07:47:48;;;;;;;4.63;3.08;;;;;;;;;;4201249;28;20052;-38
2022/03/22 07:54:50;;;;;;;5.40;2.88;;;;;;;;;;4199367;28;20605;-38
2022/03/22 07:56:51;;;;;;;7.20;3.65;;;;;;;;;;4196036;28;20134;-38
2022/03/22 07:58:52;;;;;;;4.15;3.55;;;;;;;;;;4196210;28;20055;-37
2022/03/22 08:00:53;;;;;;;4.22;3.30;;;;;;;;;;4187862;28;20056;-37
2022/03/22 08:02:55;;;;;;;4.10;2.90;;;;;;;;;;4193464;28;20747;-37
2022/03/22 08:04:56;;;;;;;4.70;2.92;;;;;;;;;;4198014;28;20089;-37
2022/03/22 08:06:57;;;;;;;4.13;3.08;;;;;;;;;;4200676;28;20484;-37
2022/03/22 08:08:58;;;;;;;4.93;3.20;;;;;;;;;;4193669;28;20822;-38
2022/03/22 08:10:59;;;;;;;4.82;3.08;;;;;;;;;;4199774;28;20093;-38
2022/03/22 08:13:01;;;;;;;4.18;3.03;;;;;;;;;;4202166;28;20060;-37
2022/03/22 08:15:02;;;;;;;6.18;3.47;;;;;;;;;;4196708;28;20820;-37
2022/03/22 08:17:04;;;;;;;5.35;3.08;;;;;;;;;;4195696;28;20051;-36
2022/03/22 08:19:05;;;;;;;4.68;3.00;;;;;;;;;;4196481;28;20487;-37
2022/03/22 08:21:06;;;;;;;4.03;3.50;;;;;;;;;;4202263;28;20100;-40
2022/03/22 08:23:07;;;;;;;6.72;3.47;;;;;;;;;;4200177;28;20071;-36
2022/03/22 08:25:08;;;;;;;4.03;3.28;;;;;;;;;;4200989;28;20153;-37
2022/03/22 08:27:09;;;;;;;4.43;3.28;;;;;;;;;;4198527;28;20056;-37
2022/03/22 08:29:10;;;;;;;4.97;3.47;;;;;;;;;;4187645;28;20048;-38
2022/03/22 08:31:11;;;;;;;4.95;3.55;;;;;;;;;;4192804;28;20055;-36
2022/03/22 08:33:12;;;;;;;5.70;3.10;;;;;;;;;;4188776;28;20056;-37
2022/03/22 08:35:13;;;;;;;6.18;3.20;;;;;;;;;;4192225;28;20052;-37
2022/03/22 08:37:14;;;;;;;5.45;3.50;;;;;;;;;;4193802;28;20051;-37
2022/03/22 08:39:15;;;;;;;6.05;3.40;;;;;;;;;;4196568;28;20124;-37
2022/03/22 08:41:16;;;;;;;5.70;3.30;;;;;;;;;;4197578;28;20548;-39
2022/03/22 08:43:19;;;;;;;6.82;3.63;;;;;;;;;;4199193;28;20067;-39
2022/03/22 08:45:22;;;;;;;5.75;3.15;;;;;;;;;;4196132;28;20051;-37
2022/03/22 08:47:23;;;;;;;4.80;3.50;;;;;;;;;;4194227;28;20841;-37
2022/03/22 08:49:24;;;;;;;6.35;3.67;;;;;;;;;;4197299;28;20048;-38
2022/03/22 08:51:25;;;;;;;5.82;3.60;;;;;;;;;;4195162;28;20494;-38
2022/03/22 08:53:27;;;;;;;3.13;2.70;;;;;;;;;;4190906;28;20052;-36
2022/03/22 08:55:29;;;;;;;4.65;3.00;;;;;;;;;;4192266;28;20048;-39
2022/03/22 08:57:30;;;;;;;4.28;3.45;;;;;;;;;;4192614;28;20057;-36
2022/03/22 08:59:31;;;;;;;7.82;3.05;;;;;;;;;;4193912;28;20501;-36
2022/03/22 09:01:32;;;;;;;5.45;3.10;;;;;;;;;;4196051;28;20544;-37
2022/03/22 09:03:35;;;;;;;7.78;3.35;;;;;;;;;;4188378;28;20503;-38
2022/03/22 09:07:58;;;;;;;;;;;;;;;;;;4187903;28;20060;-38
2022/03/22 09:09:58;;;;;;;4.13;3.35;;;;;;;;;;4187071;28;20036;-38
2022/03/22 09:11:59;;;;;;;3.95;3.20;;;;;;;;;;4186602;28;20056;-36
2022/03/22 09:14:00;;;;;;;4.82;3.03;;;;;;;;;;4188345;28;20059;-37
2022/03/22 09:16:01;;;;;;;4.65;2.90;;;;;;;;;;4189387;28;20056;-38
2022/03/22 09:18:03;;;;;;;4.55;3.15;;;;;;;;;;4188491;28;20082;-38
2022/03/22 09:20:04;;;;;;;4.43;2.63;;;;;;;;;;4170514;28;20055;-39
2022/03/22 09:22:07;;;;;;;3.80;3.10;;;;;;;;;;4191514;28;20133;-37
2022/03/22 09:24:08;;;;;;;5.95;3.17;;;;;;;;;;4192420;28;20113;-38
2022/03/22 09:26:09;;;;;;;6.72;3.30;;;;;;;;;;4192381;28;20733;-37
2022/03/22 09:28:11;;;;;;;4.57;3.47;;;;;;;;;;4192801;28;20056;-37
2022/03/22 09:30:12;;;;;;;4.07;3.40;;;;;;;;;;4190266;28;20048;-39
2022/03/22 09:32:13;;;;;;;4.93;3.30;;;;;;;;;;4187419;28;20569;-38
2022/03/22 09:34:14;;;;;;;4.75;3.50;;;;;;;;;;4191005;28;20120;-38
2022/03/22 09:36:15;;;;;;;5.97;3.15;;;;;;;;;;4189369;28;20040;-38
2022/03/22 09:38:16;;;;;;;6.00;3.30;;;;;;;;;;4187552;28;20411;-38
2022/03/22 09:40:18;;;;;;;5.25;3.13;;;;;;;;;;4192256;28;21024;-37
2022/03/22 09:42:19;;;;;;;4.15;3.47;;;;;;;;;;4189734;28;20475;-39
2022/03/22 09:44:20;;;;;;;4.93;3.45;;;;;;;;;;4191889;28;20052;-37
2022/03/22 09:46:22;;;;;;;4.05;3.40;;;;;;;;;;4186703;28;20546;-40
2022/03/22 09:48:23;;;;;;;5.70;3.92;;;;;;;;;;4185936;28;20109;-36
2022/03/22 09:51:44;;;;;;;7.25;3.55;;;;;;;;;;4194716;28;20106;-37
2022/03/22 09:52:45;;;;;;;4.88;3.50;;;;;;;;;;4191053;28;20074;-37
2022/03/22 09:54:46;;;;;;;4.60;3.42;;;;;;;;;;4194467;28;20660;-37
2022/03/22 09:56:48;;;;;;;5.43;3.25;;;;;;;;;;4196637;28;20059;-38
2022/03/22 09:58:48;;;;;;;4.30;3.10;;;;;;;;;;4188262;28;20113;-39
2022/03/22 10:00:49;;;;;;;4.45;3.10;;;;;;;;;;4190256;28;20456;-37
2022/03/22 10:02:50;;;;;;;4.38;3.70;;;;;;;;;;4192363;28;20380;-37
2022/03/22 10:04:51;;;;;;;4.20;3.80;;;;;;;;;;4192927;28;20483;-37
2022/03/22 10:07:02;;;;;;;3.95;3.25;;;;;;;;;;4194150;28;20847;-38
2022/03/22 10:09:07;;;;;;;5.88;3.50;;;;;;;;;;4195838;28;20068;-38
2022/03/22 10:11:08;;;;;;;4.00;3.15;;;;;;;;;;4198211;28;20067;-38
2022/03/22 10:13:12;;;;;;;4.57;3.70;;;;;;;;;;4191842;28;20781;-38
2022/03/22 10:15:14;;;;;;;5.05;3.95;;;;;;;;;;4194233;28;20048;-37
2022/03/22 10:17:17;;;;;;;4.50;3.20;;;;;;;;;;4199076;28;20056;-39
2022/03/22 10:19:23;;;;;;;3.58;2.83;;;;;;;;;;4201204;28;20109;-37
2022/03/22 10:21:23;;;;;;;5.88;3.88;;;;;;;;;;4192729;28;20108;-37
2022/03/22 10:23:24;;;;;;;3.60;3.20;;;;;;;;;;4197857;28;20083;-37
2022/03/22 10:25:26;;;;;;;4.72;3.67;;;;;;;;;;4197895;28;20154;-38
2022/03/22 10:27:31;;;;;;;4.03;3.40;;;;;;;;;;4195618;28;20052;-37
2022/03/22 10:29:32;;;;;;;4.55;3.55;;;;;;;;;;4198037;28;20106;-38
2022/03/22 10:31:34;;;;;;;4.03;3.45;;;;;;;;;;4197561;28;20051;-38
2022/03/22 10:33:36;;;;;;;5.07;3.05;;;;;;;;;;4196780;28;20052;-38
2022/03/22 10:35:37;;;;;;;4.68;3.55;;;;;;;;;;4196704;28;20830;-37
2022/03/22 10:37:38;;;;;;;4.43;3.65;;;;;;;;;;4198874;28;20059;-37
2022/03/22 10:39:40;;;;;;;3.95;3.45;;;;;;;;;;4199569;28;20105;-38
2022/03/22 10:41:45;;;;;;;4.40;3.53;;;;;;;;;;4192839;28;20101;-42
2022/03/22 10:43:46;;;;;;;4.13;3.50;;;;;;;;;;4198258;28;20052;-37
2022/03/22 10:45:48;;;;;;;3.67;3.25;;;;;;;;;;4193736;28;20143;-37
2022/03/22 10:47:49;;;;;;;4.32;3.60;;;;;;;;;;4198651;28;20056;-38
2022/03/22 10:50:00;;;;;;;4.50;3.20;;;;;;;;;;4196259;28;20063;-37
2022/03/22 10:52:00;;;;;;;4.88;3.53;;;;;;;;;;4191210;28;20372;-39
2022/03/22 10:54:02;;;;;;;5.35;3.40;;;;;;;;;;4195023;28;20048;-36
2022/03/22 10:56:03;;;;;;;4.25;3.60;;;;;;;;;;4195303;28;20562;-39
2022/03/22 10:58:04;;;;;;;5.07;3.38;;;;;;;;;;4195769;28;20048;-40
2022/03/22 11:00:07;;;;;;;4.85;3.30;;;;;;;;;;4192292;28;21923;-41
2022/03/22 11:02:11;;;;;;;4.07;2.95;;;;;;;;;;4193236;28;20510;-38
2022/03/22 11:04:16;;;;;;;3.35;3.05;;;;;;;;;;4200029;28;20051;-39
2022/03/22 11:06:17;;;;;;;6.18;3.50;;;;;;;;;;4196260;28;20141;-39
2022/03/22 11:08:19;;;;;;;4.15;3.15;;;;;;;;;;4198914;28;20565;-39
2022/03/22 11:10:25;;;;;;;5.65;3.50;;;;;;;;;;4196036;28;20056;-38
2022/03/22 11:12:27;;;;;;;4.25;3.47;;;;;;;;;;4193918;28;20089;-38
2022/03/22 11:14:28;;;;;;;3.88;3.13;;;;;;;;;;4196301;28;20044;-38
2022/03/22 11:16:30;;;;;;;3.78;3.33;;;;;;;;;;4192869;28;20087;-39
2022/03/22 11:18:32;;;;;;;4.00;3.40;;;;;;;;;;4195370;28;20060;-37
2022/03/22 11:20:34;;;;;;;3.58;3.22;;;;;;;;;;4194520;28;20140;-38
2022/03/22 11:22:34;;;;;;;4.90;3.75;;;;;;;;;;4195981;28;20064;-39
2022/03/22 11:24:38;;;;;;;3.88;3.05;;;;;;;;;;4194396;28;20209;-41
2022/03/22 11:26:43;;;;;;;3.80;3.00;;;;;;;;;;4191632;28;20106;-39
2022/03/22 11:28:45;;;;;;;4.75;3.65;;;;;;;;;;4192696;28;20059;-41
2022/03/22 11:30:47;;;;;;;4.75;3.70;;;;;;;;;;4193485;28;20113;-39
2022/03/22 11:35:12;;;;;;;3.88;3.47;;;;;;;;;;4193798;28;20487;-39
2022/03/22 11:37:13;;;;;;;4.15;3.38;;;;;;;;;;4197531;28;20468;-39
2022/03/22 11:39:16;;;;;;;4.28;3.53;;;;;;;;;;4193090;28;20109;-39
2022/03/22 11:43:46;;;;;;;3.85;3.08;;;;;;;;;;4197065;28;20065;-38
2022/03/22 11:45:47;;;;;;;4.22;3.38;;;;;;;;;;4196580;28;20051;-40
2022/03/22 11:47:49;;;;;;;4.47;3.80;;;;;;;;;;4190970;28;20089;-38
2022/03/22 11:49:50;;;;;;;4.45;3.63;;;;;;;;;;4191672;28;20457;-42
2022/03/22 11:51:53;;;;;;;3.40;3.10;;;;;;;;;;4188168;28;20053;-39
2022/03/22 11:53:57;;;;;;;3.47;3.17;;;;;;;;;;4188162;28;20574;-39
2022/03/22 11:55:58;;;;;;;4.53;3.55;;;;;;;;;;4189175;28;20929;-38
2022/03/22 11:58:04;;;;;;;5.07;3.72;;;;;;;;;;4194862;28;20063;-38
2022/03/22 12:00:06;;;;;;;5.50;3.70;;;;;;;;;;4187788;28;20106;-40
2022/03/22 12:02:15;;;;;;;4.97;3.78;;;;;;;;;;4190067;28;20048;-38
2022/03/22 12:04:16;;;;;;;4.45;3.42;;;;;;;;;;4197054;28;20109;-39
2022/03/22 12:06:17;;;;;;;5.13;3.25;;;;;;;;;;4193126;28;20719;-38
2022/03/22 12:08:18;;;;;;;5.00;3.65;;;;;;;;;;4195451;28;20357;-39
2022/03/22 12:10:20;;;;;;;4.32;3.53;;;;;;;;;;4195114;28;20438;-40
2022/03/22 12:12:21;;;;;;;6.75;3.88;;;;;;;;;;4194678;28;20078;-39
2022/03/22 12:14:26;;;;;;;5.70;3.67;;;;;;;;;;4199511;28;20550;-39
2022/03/22 12:16:27;;;;;;;5.38;3.38;;;;;;;;;;4190688;28;20051;-40
2022/03/22 12:18:29;;;;;;;6.82;3.25;;;;;;;;;;4189780;28;20406;-35
2022/03/22 12:20:30;;;;;;;4.88;3.67;;;;;;;;;;4193188;28;20052;-34
2022/03/22 12:22:31;;;;;;;4.35;3.85;;;;;;;;;;4189305;28;20044;-35
2022/03/22 12:24:35;;;;;;;4.15;3.30;;;;;;;;;;4189296;28;20134;-37
2022/03/22 12:26:36;;;;;;;4.00;3.40;;;;;;;;;;4193987;28;21743;-35
2022/03/22 12:28:50;;;;;;;3.70;3.30;;;;;;;;;;4193107;28;20133;-34
2022/03/22 12:30:51;;;;;;;7.03;3.92;;;;;;;;;;4194283;28;20056;-40
2022/03/22 12:32:52;;;;;;;4.80;3.72;;;;;;;;;;4196986;28;20036;-35
2022/03/22 12:34:54;;;;;;;4.03;3.30;;;;;;;;;;4198019;28;20125;-40
2022/03/22 12:36:55;;;;;;;3.88;3.28;;;;;;;;;;4196632;28;20060;-35
2022/03/22 12:38:56;;;;;;;4.45;3.53;;;;;;;;;;4199221;28;20093;-32
2022/03/22 12:40:57;;;;;;;3.85;3.22;;;;;;;;;;4194995;28;20052;-39
2022/03/22 12:42:58;;;;;;;3.80;3.20;;;;;;;;;;4189206;28;20174;-43
2022/03/22 12:44:59;;;;;;;4.32;3.65;;;;;;;;;;4188614;28;20052;-40
2022/03/22 12:47:01;;;;;;;4.50;3.45;;;;;;;;;;4186675;28;20551;-42
2022/03/22 12:49:03;;;;;;;4.47;3.42;;;;;;;;;;4191528;28;20052;-44
2022/03/22 12:51:04;;;;;;;3.97;3.58;;;;;;;;;;4189938;28;20073;-43